Time;durP1;ratioP1;P1;durP2;ratioP2;P2;SDS_P1;SDS_P2;PMS_P1;PMS_P2;Temp;Humidity;BMP_temperature;BMP_pressure;BME280_temperature;BME280_humidity;BME280_pressure;Samples;Min_cycle;Max_cycle;Signal;HPM_P1;HPM_P2
2022/09/28 00:00:33;;;;;;;6.15;1.02;;;;;;;8.37;70.81;98560.81;5002562;28;20052;-41
2022/09/28 00:03:00;;;;;;;4.40;1.35;;;;;;;8.34;70.58;98561.72;5003262;28;20056;-41
2022/09/28 00:05:27;;;;;;;5.70;1.05;;;;;;;8.32;70.70;98563.50;5016614;28;20433;-42
2022/09/28 00:07:54;;;;;;;7.10;1.05;;;;;;;8.29;70.64;98562.69;5003652;28;20506;-42
2022/09/28 00:10:21;;;;;;;4.05;0.93;;;;;;;8.28;71.37;98555.81;5008806;28;20134;-43
2022/09/28 00:12:50;;;;;;;4.32;1.30;;;;;;;8.25;70.94;98566.19;5000735;28;20081;-41
2022/09/28 00:15:17;;;;;;;5.05;1.15;;;;;;;8.22;70.59;98567.97;4991996;28;20462;-44
2022/09/28 00:17:44;;;;;;;4.40;0.95;;;;;;;8.19;70.99;98565.41;4998652;28;20550;-44
2022/09/28 00:20:11;;;;;;;10.50;1.42;;;;;;;8.17;71.84;98562.00;4991578;28;20137;-43
2022/09/28 00:22:38;;;;;;;6.65;1.73;;;;;;;8.15;71.03;98566.34;4983336;28;20054;-42
2022/09/28 00:25:05;;;;;;;4.95;1.15;;;;;;;8.13;70.56;98556.91;4994478;28;20045;-43
2022/09/28 00:27:32;;;;;;;3.92;1.38;;;;;;;8.10;71.52;98560.41;4994914;28;20097;-42
2022/09/28 00:29:59;;;;;;;5.38;1.35;;;;;;;8.08;70.93;98560.44;4992611;28;20133;-42
2022/09/28 00:32:26;;;;;;;7.28;1.40;;;;;;;8.06;71.79;98566.50;4988660;28;20111;-42
2022/09/28 00:34:53;;;;;;;5.45;1.17;;;;;;;8.05;71.66;98559.63;4991121;28;20051;-41
2022/09/28 00:37:20;;;;;;;2.88;1.13;;;;;;;8.03;71.95;98561.38;4986388;28;20141;-44
2022/09/28 00:39:47;;;;;;;9.07;1.48;;;;;;;8.02;71.26;98564.84;4989293;28;21581;-43
2022/09/28 00:42:18;;;;;;;9.15;1.25;;;;;;;7.99;71.77;98560.59;4991469;28;20130;-42
2022/09/28 00:50:25;;;;;;;9.18;1.83;;;;;;;7.93;72.59;98556.38;5029474;28;20413;-43
2022/09/28 00:55:53;;;;;;;8.57;1.35;;;;;;;7.87;72.36;98571.94;5046480;27;20794;-46
2022/09/28 00:58:26;;;;;;;6.95;3.25;;;;;;;7.89;72.05;98565.03;5021301;28;20099;-45
2022/09/28 01:00:55;;;;;;;6.95;2.72;;;;;;;7.89;72.70;98559.88;5021294;28;20077;-42
2022/09/28 01:03:23;;;;;;;7.60;2.92;;;;;;;7.89;72.17;98569.34;5021835;28;20061;-47
2022/09/28 01:05:51;;;;;;;5.60;2.38;;;;;;;7.88;72.02;98558.19;5019497;28;20591;-42
2022/09/28 01:08:20;;;;;;;7.82;2.63;;;;;;;7.88;72.13;98563.34;5022849;28;20042;-46
2022/09/28 01:10:48;;;;;;;8.45;3.35;;;;;;;7.87;72.04;98565.94;5019376;28;20049;-44
2022/09/28 01:13:16;;;;;;;6.18;3.58;;;;;;;7.86;71.74;98565.09;5018945;28;20080;-42
2022/09/28 01:15:55;;;;;;;6.43;2.70;;;;;;;7.84;72.72;98561.69;5019832;28;20057;-42
2022/09/28 01:18:34;;;;;;;8.98;2.72;;;;;;;7.82;72.90;98558.28;5020290;28;20072;-41
2022/09/28 01:23:59;;;;;;;12.80;1.98;;;;;;;7.78;73.22;98559.19;5021231;27;20426;-43
2022/09/28 01:32:02;;;;;;;6.78;2.55;;;;;;;7.96;72.82;98556.34;5020070;28;20433;-43
2022/09/28 01:34:38;;;;;;;9.50;1.85;;;;;;;7.92;73.21;98558.97;4989816;28;20047;-43
2022/09/28 01:37:08;;;;;;;7.30;2.20;;;;;;;7.88;73.77;98550.47;4987451;28;20041;-42
2022/09/28 01:39:38;;;;;;;;;;;;;;;7.74;74.37;98554.97;4996473;28;20133;-41
2022/09/28 01:42:13;;;;;;;6.50;1.50;;;;;;;7.77;72.52;98549.78;4998843;28;20582;-43
2022/09/28 01:44:44;;;;;;;8.68;1.85;;;;;;;7.79;72.76;98553.16;4988907;28;20042;-44
2022/09/28 01:47:14;;;;;;;5.25;1.92;;;;;;;7.78;72.56;98556.63;4989358;28;20129;-41
2022/09/28 01:49:46;;;;;;;6.50;1.90;;;;;;;7.76;72.78;98553.19;4993385;28;20082;-42
2022/09/28 01:52:20;;;;;;;6.57;2.28;;;;;;;7.74;73.88;98548.09;5006936;28;20089;-40
2022/09/28 02:00:09;;;;;;;5.80;1.85;;;;;;;7.69;73.26;98550.75;5004303;28;20420;-42
2022/09/28 02:02:47;;;;;;;10.55;2.38;;;;;;;7.67;73.04;98551.63;4997959;28;20552;-44
2022/09/28 02:05:23;;;;;;;6.68;2.03;;;;;;;7.67;73.09;98561.94;5001640;28;20569;-42
2022/09/28 02:07:59;;;;;;;5.30;1.45;;;;;;;7.63;74.23;98553.41;5003550;28;20466;-44
2022/09/28 02:10:34;;;;;;;4.85;1.63;;;;;;;7.64;73.42;98556.84;5002589;28;20038;-43
2022/09/28 02:13:08;;;;;;;5.40;1.38;;;;;;;7.64;74.02;98557.69;5014157;28;20137;-42
2022/09/28 02:15:49;;;;;;;5.15;1.38;;;;;;;7.63;72.85;98552.56;4996352;28;20096;-41
2022/09/28 02:18:16;;;;;;;3.40;1.55;;;;;;;7.63;74.42;98552.56;5000792;28;20647;-42
2022/09/28 02:21:09;;;;;;;3.10;1.50;;;;;;;7.63;72.89;98553.41;5003840;28;20138;-42
2022/09/28 02:23:40;;;;;;;8.20;1.98;;;;;;;7.64;73.66;98551.69;5013043;28;20084;-41
2022/09/28 02:26:12;;;;;;;2.88;1.05;;;;;;;7.63;73.22;98548.25;4998469;28;20069;-43
2022/09/28 02:28:39;;;;;;;8.85;1.88;;;;;;;7.63;73.23;98547.41;5015112;28;20482;-41
2022/09/28 02:31:06;;;;;;;6.93;1.48;;;;;;;7.62;72.90;98543.97;5000670;28;20141;-40
2022/09/28 02:33:37;;;;;;;3.13;1.17;;;;;;;7.62;73.90;98546.53;5000387;28;20038;-41
2022/09/28 02:36:04;;;;;;;4.85;1.42;;;;;;;7.61;72.73;98544.00;5003300;28;20077;-43
2022/09/28 02:38:31;;;;;;;7.30;1.60;;;;;;;7.59;73.73;98542.28;5000673;28;20129;-40
2022/09/28 02:47:04;;;;;;;7.75;3.85;;;;;;;7.54;73.87;98543.22;5032151;27;20924;-42
2022/09/28 02:55:17;;;;;;;7.47;1.98;;;;;;;7.48;73.11;98544.16;5065185;28;20414;-41
2022/09/28 03:00:31;;;;;;;8.88;1.33;;;;;;;7.45;72.85;98542.50;5076321;27;20397;-42
2022/09/28 03:11:12;;;;;;;4.70;1.13;;;;;;;7.56;73.97;98549.19;5054203;27;20886;-41
2022/09/28 03:13:39;;;;;;;6.22;1.10;;;;;;;7.54;73.84;98550.97;5026528;28;20069;-41
2022/09/28 03:18:45;;;;;;;9.45;1.45;;;;;;;7.49;74.18;98556.16;5133235;27;20414;-44
2022/09/28 03:21:13;;;;;;;5.50;1.92;;;;;;;7.46;74.46;98551.91;5061468;28;20036;-40
2022/09/28 03:23:40;;;;;;;6.65;1.20;;;;;;;7.45;74.17;98542.50;5104353;27;20044;-44
2022/09/28 03:26:10;;;;;;;4.43;1.27;;;;;;;7.45;74.51;98555.38;5076481;28;20466;-43
2022/09/28 03:28:36;;;;;;;3.85;1.20;;;;;;;7.44;73.82;98547.66;5074191;28;20063;-44
2022/09/28 03:31:03;;;;;;;5.07;2.20;;;;;;;7.42;73.45;98550.25;5059660;27;20407;-43
2022/09/28 03:33:30;;;;;;;4.88;0.85;;;;;;;7.41;74.05;98553.72;5063789;28;20087;-40
2022/09/28 03:35:56;;;;;;;7.90;1.88;;;;;;;7.40;73.46;98552.00;5078461;28;20079;-46
2022/09/28 03:38:23;;;;;;;2.33;1.13;;;;;;;7.38;74.48;98558.91;5069623;28;20160;-45
2022/09/28 03:40:53;;;;;;;6.55;1.55;;;;;;;7.38;73.67;98558.91;5092146;28;20124;-42
2022/09/28 03:43:20;;;;;;;4.35;2.55;;;;;;;7.36;73.69;98563.22;5063261;28;20400;-41
2022/09/28 03:45:52;;;;;;;9.98;1.88;;;;;;;7.37;73.98;98556.34;5061701;28;20488;-40
2022/09/28 03:48:26;;;;;;;2.75;1.33;;;;;;;7.35;73.62;98558.94;5058028;28;20041;-42
2022/09/28 03:50:59;;;;;;;6.18;1.90;;;;;;;7.35;74.47;98561.53;5100449;28;20169;-42
2022/09/28 03:53:28;;;;;;;6.32;2.17;;;;;;;7.35;73.90;98558.94;5080108;28;20054;-41
2022/09/28 03:56:00;;;;;;;4.13;1.98;;;;;;;7.35;73.97;98564.09;5078398;27;20075;-44
2022/09/28 03:58:27;;;;;;;6.68;1.60;;;;;;;7.35;74.68;98564.09;5080349;28;20131;-42
2022/09/28 04:00:53;;;;;;;6.45;2.10;;;;;;;7.34;73.62;98562.41;5078465;28;20052;-42
2022/09/28 04:03:20;;;;;;;8.32;2.38;;;;;;;7.35;75.04;98561.53;5082789;28;20048;-41
2022/09/28 04:05:50;;;;;;;11.40;1.92;;;;;;;7.35;73.90;98564.09;5079661;28;20521;-44
2022/09/28 04:08:17;;;;;;;6.07;1.92;;;;;;;7.35;73.98;98564.09;5064875;28;20105;-43
2022/09/28 04:10:44;;;;;;;6.32;1.90;;;;;;;7.34;74.74;98564.97;5077402;28;20480;-42
2022/09/28 04:13:11;;;;;;;6.85;2.55;;;;;;;7.33;73.38;98566.69;5078336;28;20480;-41
2022/09/28 04:15:37;;;;;;;5.75;2.03;;;;;;;7.32;74.27;98569.28;5081615;28;20131;-43
2022/09/28 04:18:09;;;;;;;11.95;2.22;;;;;;;7.31;73.86;98572.75;5076224;28;20558;-42
2022/09/28 04:20:36;;;;;;;5.15;2.90;;;;;;;7.30;74.51;98571.03;5076765;28;20452;-43
2022/09/28 04:23:03;;;;;;;6.60;2.00;;;;;;;7.29;74.34;98574.47;5078688;27;20090;-42
2022/09/28 04:25:29;;;;;;;8.65;2.22;;;;;;;7.27;74.70;98574.50;5083166;27;20074;-41
2022/09/28 04:30:44;;;;;;;7.38;1.92;;;;;;;7.27;74.03;98571.06;5054928;28;20127;-41
2022/09/28 04:33:11;;;;;;;6.05;2.47;;;;;;;7.29;74.71;98577.03;5063342;28;20076;-42
2022/09/28 04:35:37;;;;;;;7.90;2.22;;;;;;;7.31;74.75;98577.88;5064182;28;20064;-41
2022/09/28 04:38:04;;;;;;;9.52;2.13;;;;;;;7.32;74.59;98577.00;5071091;28;20099;-40
2022/09/28 04:40:31;;;;;;;8.88;2.03;;;;;;;7.34;74.24;98577.84;5063765;28;20124;-43
2022/09/28 04:42:58;;;;;;;7.88;2.33;;;;;;;7.37;75.43;98577.81;5064267;28;20052;-42
2022/09/28 04:45:25;;;;;;;8.32;2.30;;;;;;;7.39;75.74;98567.47;5059277;28;20052;-42
2022/09/28 04:47:52;;;;;;;6.95;2.55;;;;;;;7.42;75.33;98570.88;5060620;28;20068;-41
2022/09/28 04:50:19;;;;;;;6.38;3.28;;;;;;;7.46;75.75;98562.22;5069199;28;20699;-42
2022/09/28 04:52:46;;;;;;;6.35;1.90;;;;;;;7.50;74.67;98568.16;5058601;28;20045;-41
2022/09/28 04:55:13;;;;;;;10.45;2.92;;;;;;;7.56;75.35;98582.69;5046213;28;20075;-41
2022/09/28 04:57:39;;;;;;;6.90;2.35;;;;;;;7.56;74.32;98578.41;5044739;28;20136;-42
2022/09/28 05:00:07;;;;;;;7.43;2.95;;;;;;;7.61;75.61;98565.47;5058215;28;20072;-40
2022/09/28 05:02:34;;;;;;;8.63;2.90;;;;;;;7.62;75.90;98572.31;5066354;28;20056;-41
2022/09/28 05:05:01;;;;;;;8.27;2.42;;;;;;;7.63;75.04;98568.84;5067002;28;20068;-41
2022/09/28 05:07:27;;;;;;;9.32;3.85;;;;;;;7.66;75.06;98558.50;5059423;28;20407;-40
2022/09/28 05:09:54;;;;;;;8.80;3.10;;;;;;;7.68;75.78;98556.78;5065176;28;20593;-40
2022/09/28 05:12:21;;;;;;;8.95;2.80;;;;;;;7.71;75.59;98561.84;5065306;28;20538;-42
2022/09/28 05:14:47;;;;;;;8.38;4.40;;;;;;;7.72;76.19;98563.59;5049410;28;20580;-41
2022/09/28 05:17:14;;;;;;;9.48;2.92;;;;;;;7.74;74.95;98565.28;5049601;28;20064;-43
2022/09/28 05:19:41;;;;;;;9.18;2.95;;;;;;;7.75;75.13;98564.41;5060217;28;20131;-42
2022/09/28 05:22:12;;;;;;;7.57;2.72;;;;;;;7.77;75.30;98562.66;5062577;28;20127;-40
2022/09/28 05:24:39;;;;;;;9.60;3.03;;;;;;;7.77;74.68;98562.66;5065641;28;20153;-41
2022/09/28 05:27:06;;;;;;;6.93;2.45;;;;;;;7.76;76.08;98564.38;5047350;28;20128;-41
2022/09/28 05:29:33;;;;;;;6.25;2.30;;;;;;;7.75;75.99;98567.84;5045803;28;21548;-42
2022/09/28 05:32:00;;;;;;;8.85;3.55;;;;;;;7.75;74.52;98561.81;5050752;28;20484;-41
2022/09/28 05:34:27;;;;;;;9.07;3.92;;;;;;;7.75;74.59;98560.09;5052015;28;20400;-42
2022/09/28 05:36:54;;;;;;;9.48;3.42;;;;;;;7.74;75.09;98560.97;5043474;28;20985;-43
2022/09/28 05:39:21;;;;;;;7.57;2.45;;;;;;;7.72;75.09;98562.72;5065689;28;20045;-40
2022/09/28 05:41:48;;;;;;;7.95;3.17;;;;;;;7.71;75.01;98567.00;5064620;28;20056;-42
2022/09/28 05:44:14;;;;;;;5.80;2.42;;;;;;;7.67;75.99;98565.34;5066713;28;20133;-41
2022/09/28 05:46:41;;;;;;;7.97;2.97;;;;;;;7.66;74.88;98573.09;5063270;28;20041;-42
2022/09/28 05:49:08;;;;;;;7.10;2.85;;;;;;;7.63;74.29;98568.84;5065369;28;20135;-43
2022/09/28 05:51:34;;;;;;;8.52;3.45;;;;;;;7.62;74.08;98562.00;5067747;28;20447;-41
2022/09/28 05:54:01;;;;;;;9.02;2.50;;;;;;;7.60;74.75;98571.47;5065007;28;20091;-40
2022/09/28 05:56:32;;;;;;;8.60;2.55;;;;;;;7.57;74.30;98571.53;5045146;28;20137;-42
2022/09/28 05:58:58;;;;;;;7.38;2.90;;;;;;;7.55;73.94;98565.53;5050142;28;20135;-41
2022/09/28 06:01:25;;;;;;;6.82;2.75;;;;;;;7.53;74.29;98575.88;5065183;28;20068;-42
2022/09/28 06:03:52;;;;;;;9.73;2.58;;;;;;;7.50;75.26;98577.66;5061636;28;20045;-43
2022/09/28 06:06:18;;;;;;;8.20;2.80;;;;;;;7.49;74.10;98575.94;5062221;28;20114;-45
2022/09/28 06:08:47;;;;;;;8.27;3.13;;;;;;;7.50;73.89;98582.81;5066149;28;20082;-43
2022/09/28 06:11:13;;;;;;;14.45;3.13;;;;;;;7.48;74.05;98587.97;5057895;28;20043;-44
2022/09/28 06:13:40;;;;;;;9.95;3.00;;;;;;;7.49;75.08;98588.84;5062681;28;20098;-43
2022/09/28 06:16:07;;;;;;;8.35;3.28;;;;;;;7.49;75.19;98575.94;5056200;28;20052;-45
2022/09/28 06:18:34;;;;;;;10.20;4.93;;;;;;;7.49;75.05;98592.25;5059406;28;20578;-42
2022/09/28 06:21:01;;;;;;;6.47;2.58;;;;;;;7.51;74.13;98594.81;5060935;28;20049;-41
2022/09/28 06:23:28;;;;;;;10.02;3.30;;;;;;;7.53;74.47;98596.47;5057401;28;20532;-42
2022/09/28 06:25:54;;;;;;;6.78;2.45;;;;;;;7.55;74.26;98594.75;5059875;28;20571;-42
2022/09/28 06:28:21;;;;;;;8.50;3.03;;;;;;;7.61;73.61;98605.84;5056265;28;20723;-44
2022/09/28 06:30:47;;;;;;;7.30;2.50;;;;;;;7.63;73.94;98607.50;5059833;28;20185;-42
2022/09/28 06:33:15;;;;;;;6.13;2.47;;;;;;;7.68;75.53;98608.31;5059933;28;20552;-41
2022/09/28 06:35:41;;;;;;;11.63;2.63;;;;;;;7.71;74.23;98600.50;5061377;28;20048;-42
2022/09/28 06:38:08;;;;;;;7.68;2.58;;;;;;;7.75;73.77;98603.06;5054296;28;20099;-42
2022/09/28 06:40:35;;;;;;;6.55;2.03;;;;;;;7.79;74.73;98609.88;5042076;28;20140;-42
2022/09/28 06:43:09;;;;;;;8.10;3.03;;;;;;;7.82;75.06;98607.25;5061332;28;20044;-42
2022/09/28 06:45:37;;;;;;;11.38;2.42;;;;;;;7.86;74.39;98614.06;5066606;28;20049;-43
2022/09/28 06:48:04;;;;;;;6.38;2.40;;;;;;;7.90;74.33;98615.72;5059032;28;20519;-41
2022/09/28 06:50:36;;;;;;;6.38;2.30;;;;;;;7.94;74.45;98619.94;5057201;28;20098;-41
2022/09/28 06:53:05;;;;;;;9.30;2.17;;;;;;;7.97;74.25;98619.91;5057348;28;20056;-43
2022/09/28 06:55:32;;;;;;;9.50;2.38;;;;;;;8.02;74.18;98626.72;5069537;28;20063;-41
2022/09/28 06:58:02;;;;;;;8.60;2.50;;;;;;;8.04;75.21;98625.81;5054558;28;20044;-42
2022/09/28 07:00:32;;;;;;;7.93;2.47;;;;;;;8.08;74.01;98631.81;5061498;28;20075;-42
2022/09/28 07:03:01;;;;;;;9.27;2.80;;;;;;;8.14;75.06;98625.69;5065127;28;20050;-43
2022/09/28 07:05:29;;;;;;;6.40;2.53;;;;;;;8.18;74.57;98632.50;5071359;28;20144;-43
2022/09/28 07:07:56;;;;;;;9.10;2.65;;;;;;;8.18;74.79;98628.19;5059205;28;20050;-42
2022/09/28 07:10:26;;;;;;;8.23;2.63;;;;;;;8.19;73.76;98627.31;5058629;28;20068;-42
2022/09/28 07:12:54;;;;;;;;;;;;;;;8.09;74.27;98633.50;5077654;28;20048;-43
2022/09/28 07:15:20;;;;;;;6.75;3.22;;;;;;;8.18;74.00;98632.50;5070444;28;20594;-43
2022/09/28 07:17:47;;;;;;;6.50;2.75;;;;;;;8.21;73.94;98633.28;5058809;28;20143;-43
2022/09/28 07:20:28;;;;;;;5.88;2.33;;;;;;;8.31;74.59;98625.44;5068682;28;20051;-42
2022/09/28 07:22:58;;;;;;;6.75;2.42;;;;;;;8.44;74.50;98628.66;5073517;28;20123;-43
2022/09/28 07:25:44;;;;;;;6.93;2.58;;;;;;;8.52;73.56;98631.97;5073481;28;20041;-41
2022/09/28 07:28:11;;;;;;;6.80;2.25;;;;;;;8.58;73.66;98636.19;5085988;28;20041;-43
2022/09/28 07:30:38;;;;;;;8.02;2.67;;;;;;;8.67;74.40;98636.00;5065459;28;20522;-43
2022/09/28 07:33:06;;;;;;;8.65;2.53;;;;;;;8.78;73.43;98645.31;5063618;28;20073;-43
2022/09/28 07:35:33;;;;;;;7.80;2.67;;;;;;;8.87;73.32;98638.25;5063002;28;20049;-42
2022/09/28 07:38:02;;;;;;;8.10;2.88;;;;;;;8.94;72.87;98643.28;5066935;28;20041;-44
2022/09/28 07:43:19;;;;;;;6.28;2.88;;;;;;;9.03;73.78;98637.09;5063584;28;20045;-44
2022/09/28 07:45:47;;;;;;;8.43;2.83;;;;;;;9.11;73.00;98643.81;5084950;28;20123;-43
2022/09/28 07:48:15;;;;;;;6.70;3.00;;;;;;;9.22;73.42;98648.78;5065262;28;20468;-42
2022/09/28 07:50:50;;;;;;;5.22;2.13;;;;;;;9.31;73.33;98654.63;5081110;28;20075;-42
2022/09/28 07:53:19;;;;;;;5.82;2.20;;;;;;;9.39;73.29;98647.56;5075247;28;20057;-43
2022/09/28 07:55:50;;;;;;;9.65;2.35;;;;;;;9.45;72.77;98650.03;5081310;28;20060;-42
2022/09/28 07:58:18;;;;;;;7.47;3.03;;;;;;;9.54;72.76;98655.91;5081457;28;20040;-43
2022/09/28 08:00:46;;;;;;;7.30;2.55;;;;;;;9.61;72.63;98647.13;5067146;28;20048;-41
2022/09/28 08:03:16;;;;;;;7.13;2.53;;;;;;;9.71;73.58;98650.38;5062019;28;20135;-42
2022/09/28 08:05:43;;;;;;;7.68;2.80;;;;;;;9.81;73.50;98651.88;5063236;28;20044;-41
2022/09/28 08:08:09;;;;;;;6.60;3.00;;;;;;;10.00;73.42;98648.88;5067421;28;20045;-42
2022/09/28 08:10:36;;;;;;;5.25;2.63;;;;;;;10.18;73.16;98650.19;5072548;28;20057;-42
2022/09/28 08:13:04;;;;;;;6.60;3.38;;;;;;;10.31;73.19;98649.88;5069788;28;20360;-43
2022/09/28 08:15:35;;;;;;;6.13;2.13;;;;;;;10.47;72.59;98653.00;5067977;28;20060;-46
2022/09/28 08:18:03;;;;;;;5.20;2.47;;;;;;;10.74;73.15;98653.19;5071748;28;20048;-43
2022/09/28 08:23:18;;;;;;;6.18;2.20;;;;;;;11.96;72.53;98655.81;5070414;28;20140;-42
2022/09/28 08:25:47;;;;;;;5.72;2.13;;;;;;;12.99;71.07;98660.28;5068613;28;20076;-43
2022/09/28 08:28:17;;;;;;;7.30;2.28;;;;;;;14.03;67.81;98657.41;5078011;28;20072;-43
2022/09/28 08:30:44;;;;;;;4.13;2.10;;;;;;;15.04;66.12;98659.34;5066790;28;20613;-43
2022/09/28 08:33:12;;;;;;;5.30;1.70;;;;;;;15.93;63.27;98668.44;5076353;28;20539;-43
2022/09/28 08:35:40;;;;;;;3.92;2.08;;;;;;;16.73;61.82;98666.41;5072173;28;20044;-44
2022/09/28 08:38:08;;;;;;;6.82;2.38;;;;;;;17.52;59.84;98664.13;5082549;28;20040;-42
2022/09/28 08:40:43;;;;;;;5.50;2.00;;;;;;;18.16;58.24;98674.66;5070661;28;20884;-45
2022/09/28 08:43:50;;;;;;;4.75;1.83;;;;;;;18.53;57.05;98673.47;5080867;28;20047;-46
2022/09/28 08:46:21;;;;;;;2.38;1.85;;;;;;;19.05;55.90;98673.97;5065165;28;20124;-43
2022/09/28 08:51:41;;;;;;;4.53;2.88;;;;;;;20.22;53.09;98680.81;5022151;28;20421;-43
2022/09/28 08:54:30;;;;;;;3.67;2.60;;;;;;;20.60;51.09;98668.69;5018320;28;20042;-45
2022/09/28 08:57:04;;;;;;;3.75;2.22;;;;;;;21.00;51.04;98673.09;5015067;28;20076;-43
2022/09/28 08:59:50;;;;;;;3.97;2.45;;;;;;;21.52;50.15;98678.31;5011199;28;20109;-42
2022/09/28 09:02:38;;;;;;;3.90;2.72;;;;;;;21.98;49.19;98673.38;5003344;28;20050;-44
2022/09/28 09:05:13;;;;;;;4.07;3.08;;;;;;;22.16;47.93;98680.91;5013884;28;20046;-44
2022/09/28 09:10:45;;;;;;;3.40;1.92;;;;;;;22.51;44.99;98672.16;5093830;27;20391;-45
2022/09/28 09:18:41;;;;;;;7.20;3.75;;;;;;;23.18;45.01;98667.19;5106652;27;20377;-45
2022/09/28 09:26:38;;;;;;;3.88;1.92;;;;;;;23.92;42.31;98680.84;5090109;27;20417;-45
2022/09/28 09:48:44;;;;;;;4.20;1.30;;;;;;;25.08;39.99;98656.41;5043260;27;20437;-48
2022/09/28 09:51:19;;;;;;;3.15;1.35;;;;;;;25.24;40.35;98661.22;5040675;28;20132;-47
2022/09/28 09:54:00;;;;;;;3.13;1.10;;;;;;;25.39;38.76;98659.03;5065470;28;20131;-47
2022/09/28 09:56:37;;;;;;;3.70;1.70;;;;;;;25.34;38.99;98660.41;5079205;28;20447;-44
2022/09/28 09:59:11;;;;;;;3.08;1.75;;;;;;;25.32;39.33;98657.88;5062622;28;20450;-47
2022/09/28 10:01:40;;;;;;;2.85;1.58;;;;;;;25.30;39.41;98662.50;5075463;28;20075;-44
2022/09/28 10:04:18;;;;;;;2.97;1.40;;;;;;;25.00;39.06;98669.47;5076182;28;20045;-44
2022/09/28 10:06:48;;;;;;;2.97;0.90;;;;;;;24.31;39.13;98669.78;5081216;28;20486;-44
2022/09/28 10:09:22;;;;;;;3.40;1.13;;;;;;;24.22;39.13;98666.09;5075273;28;20073;-44
2022/09/28 10:11:50;;;;;;;1.95;0.77;;;;;;;24.26;40.05;98666.69;5077244;28;20048;-43
2022/09/28 10:14:21;;;;;;;1.80;0.70;;;;;;;24.24;39.77;98660.69;5070142;28;20481;-45
2022/09/28 10:16:50;;;;;;;3.50;1.15;;;;;;;24.09;39.73;98671.53;5068468;28;20668;-47
2022/09/28 10:19:20;;;;;;;1.83;0.88;;;;;;;23.97;39.91;98659.28;5057928;28;20102;-49
2022/09/28 10:21:50;;;;;;;3.35;1.02;;;;;;;23.72;40.60;98663.94;5075364;28;20076;-45
2022/09/28 10:24:26;;;;;;;3.58;1.52;;;;;;;23.14;40.80;98659.59;5064949;28;20480;-46
2022/09/28 10:26:54;;;;;;;4.80;1.90;;;;;;;22.43;41.63;98656.09;5064939;28;20128;-47
2022/09/28 10:29:24;;;;;;;4.50;1.63;;;;;;;21.79;42.00;98656.25;5072260;28;20135;-49
2022/09/28 10:31:53;;;;;;;6.80;2.25;;;;;;;21.23;42.93;98652.22;5066882;28;20076;-45
2022/09/28 10:34:29;;;;;;;4.82;1.55;;;;;;;20.88;44.03;98668.63;5076728;28;20134;-45
2022/09/28 10:37:05;;;;;;;;;;;;;;;20.55;44.47;98663.75;5057741;28;20124;-46
2022/09/28 10:42:19;;;;;;;5.25;3.13;;;;;;;20.60;43.65;98659.97;5039812;28;20782;-44
2022/09/28 10:44:53;;;;;;;6.47;2.28;;;;;;;20.21;44.55;98660.72;5016555;28;20049;-43
2022/09/28 10:47:22;;;;;;;2.58;1.40;;;;;;;19.86;44.96;98661.19;5015731;28;20464;-45
2022/09/28 10:49:52;;;;;;;3.13;2.33;;;;;;;19.45;45.41;98663.69;5018518;28;20048;-44
2022/09/28 10:52:30;;;;;;;4.15;2.50;;;;;;;19.07;46.05;98664.25;5011120;28;20541;-43
2022/09/28 10:54:57;;;;;;;3.80;2.13;;;;;;;18.84;46.97;98659.41;4985990;28;20133;-43
2022/09/28 10:57:39;;;;;;;3.72;1.00;;;;;;;18.57;47.05;98667.09;5015725;28;20769;-44
2022/09/28 11:00:38;;;;;;;2.50;1.73;;;;;;;18.34;47.55;98656.19;5019756;28;20490;-44
2022/09/28 11:03:05;;;;;;;2.13;0.60;;;;;;;18.24;47.70;98661.94;5000592;28;20448;-50
2022/09/28 11:05:32;;;;;;;2.60;1.85;;;;;;;18.09;47.54;98657.59;5008569;28;20124;-47
2022/09/28 11:08:04;;;;;;;3.85;1.30;;;;;;;17.98;48.34;98661.63;5011491;28;20585;-46
2022/09/28 11:10:32;;;;;;;2.85;2.15;;;;;;;17.89;48.49;98662.13;5014662;28;20042;-45
2022/09/28 11:12:59;;;;;;;2.60;2.38;;;;;;;17.85;49.15;98658.00;5012954;28;20077;-44
2022/09/28 11:15:30;;;;;;;4.03;3.60;;;;;;;17.81;48.60;98659.09;5011979;28;20096;-45
2022/09/28 11:18:18;;;;;;;2.63;1.88;;;;;;;17.65;49.41;98653.84;5016582;28;20082;-43
2022/09/28 11:20:45;;;;;;;3.85;2.05;;;;;;;17.59;49.10;98668.13;5013043;28;20125;-43
2022/09/28 11:23:29;;;;;;;3.08;2.58;;;;;;;17.40;49.59;98661.28;5009086;28;20061;-43
2022/09/28 11:26:01;;;;;;;4.72;2.20;;;;;;;17.31;49.70;98662.59;5015637;28;20100;-43
2022/09/28 11:28:31;;;;;;;2.88;2.10;;;;;;;17.21;49.43;98654.41;5014911;28;20073;-43
2022/09/28 11:30:59;;;;;;;2.38;1.92;;;;;;;17.26;50.32;98658.53;5014886;28;20172;-43
2022/09/28 11:53:23;;;;;;;2.97;2.60;;;;;;;17.70;47.72;98636.97;5057764;27;20394;-43
2022/09/28 11:58:48;;;;;;;0.70;0.55;;;;;;;17.70;48.31;98633.50;5042745;28;20398;-45
2022/09/28 12:04:02;;;;;;;0.93;0.50;;;;;;;17.59;48.66;98629.69;5041115;28;20403;-42
2022/09/28 12:06:37;;;;;;;1.38;0.50;;;;;;;17.54;49.10;98628.25;5033131;28;20058;-44
2022/09/28 12:09:13;;;;;;;2.17;0.73;;;;;;;17.46;49.27;98631.28;5058659;28;20049;-44
2022/09/28 12:11:44;;;;;;;4.13;1.52;;;;;;;17.36;49.13;98638.78;5051936;28;20048;-43
2022/09/28 12:14:23;;;;;;;4.07;0.40;;;;;;;17.23;49.04;98637.75;5048925;28;20556;-42
2022/09/28 12:17:17;;;;;;;0.60;0.30;;;;;;;17.10;48.87;98635.81;5043945;28;21159;-42
2022/09/28 12:19:54;;;;;;;1.20;0.52;;;;;;;17.13;49.49;98633.03;5066139;28;20053;-43
2022/09/28 12:25:12;;;;;;;1.33;0.70;;;;;;;17.05;49.70;98637.75;5055793;28;20743;-42
2022/09/28 12:28:05;;;;;;;1.52;0.70;;;;;;;16.95;49.52;98629.56;5023297;28;20106;-45
2022/09/28 12:30:39;;;;;;;2.92;1.38;;;;;;;17.01;49.36;98634.47;5021517;28;20517;-46
2022/09/28 12:33:11;;;;;;;2.63;1.70;;;;;;;17.00;50.00;98634.56;5023625;28;20603;-43
2022/09/28 12:49:58;;;;;;;2.92;1.55;;;;;;;16.59;49.20;98623.53;5047074;28;20734;-43
2022/09/28 12:53:18;;;;;;;1.88;1.77;;;;;;;16.66;49.22;98614.47;4996619;28;20174;-44
2022/09/28 12:56:02;;;;;;;1.00;0.70;;;;;;;16.76;48.78;98613.97;4996258;28;20442;-42
2022/09/28 13:06:46;;;;;;;1.65;0.63;;;;;;;16.66;48.44;98609.25;5029490;27;20414;-45
2022/09/28 13:12:12;;;;;;;1.48;0.75;;;;;;;16.58;48.19;98606.16;5011930;27;20408;-45
2022/09/28 13:17:53;;;;;;;1.73;1.17;;;;;;;16.49;48.98;98604.00;5032628;27;20723;-44
2022/09/28 13:25:41;;;;;;;2.17;0.80;;;;;;;16.76;48.47;98596.53;5095927;27;20919;-42
2022/09/28 13:28:14;;;;;;;1.50;0.73;;;;;;;16.83;49.37;98605.72;5078754;28;20068;-42
2022/09/28 13:30:43;;;;;;;1.95;1.75;;;;;;;16.83;48.91;98605.72;5085058;28;20513;-43
2022/09/28 13:33:34;;;;;;;2.28;2.13;;;;;;;16.75;48.82;98607.91;5081563;28;20471;-46
2022/09/28 13:36:22;;;;;;;0.85;0.40;;;;;;;16.76;48.33;98598.28;5087649;28;20047;-42
2022/09/28 13:38:48;;;;;;;1.13;0.82;;;;;;;16.68;48.12;98602.16;5080028;28;20044;-45
2022/09/28 13:41:18;;;;;;;1.92;0.55;;;;;;;16.65;48.72;98596.25;5083872;27;20044;-45
2022/09/28 13:49:44;;;;;;;4.28;1.85;;;;;;;16.86;48.38;98602.13;5053042;27;21057;-42
2022/09/28 13:52:15;;;;;;;;;;;;;;;16.88;47.85;98602.88;5021457;28;20080;-42
2022/09/28 13:57:30;;;;;;;1.38;0.40;;;;;;;17.08;47.91;98598.41;5010388;27;20415;-42
2022/09/28 14:00:09;;;;;;;3.58;1.13;;;;;;;17.12;47.59;98597.31;5000138;28;20039;-45
2022/09/28 14:16:47;;;;;;;0.73;0.60;;;;;;;17.12;47.89;98594.69;5056579;27;20406;-44
2022/09/28 14:19:25;;;;;;;1.65;0.73;;;;;;;17.13;47.29;98590.31;5005089;28;20050;-44
2022/09/28 14:32:57;;;;;;;1.10;0.77;;;;;;;17.14;47.25;98579.78;5020603;27;20674;-41
2022/09/28 14:35:30;;;;;;;4.70;0.55;;;;;;;17.17;47.26;98584.84;5037039;28;20677;-45
2022/09/28 14:41:10;;;;;;;1.63;0.47;;;;;;;17.13;47.79;98572.88;5003936;28;20141;-43
2022/09/28 14:46:36;;;;;;;1.33;1.15;;;;;;;17.25;47.05;98567.91;5088924;27;20401;-43
2022/09/28 14:54:19;;;;;;;2.00;1.13;;;;;;;17.23;46.80;98564.50;5017761;27;20410;-42
2022/09/28 14:59:42;;;;;;;1.05;0.50;;;;;;;17.20;46.51;98563.72;5001614;28;20420;-44
2022/09/28 15:04:51;;;;;;;2.00;0.85;;;;;;;17.15;46.34;98560.53;5041621;27;20392;-42
2022/09/28 15:07:22;;;;;;;1.67;0.88;;;;;;;17.08;46.21;98567.00;4986247;28;20394;-43
2022/09/28 15:09:50;;;;;;;0.90;0.35;;;;;;;17.02;46.08;98556.88;4986033;28;20061;-42
2022/09/28 15:12:22;;;;;;;0.80;0.57;;;;;;;16.95;46.29;98562.41;5023205;28;20074;-42
2022/09/28 15:14:55;;;;;;;2.40;0.45;;;;;;;16.85;45.89;98563.81;4991271;28;20046;-43
2022/09/28 15:17:25;;;;;;;0.60;0.43;;;;;;;16.75;47.03;98554.78;5016277;28;20138;-42
2022/09/28 15:20:20;;;;;;;1.27;0.50;;;;;;;16.66;46.86;98559.56;4983218;28;20078;-43
2022/09/28 15:22:49;;;;;;;1.40;0.40;;;;;;;16.60;46.63;98557.28;4982060;28;20142;-41